Time;durP1;ratioP1;P1;durP2;ratioP2;P2;SDS_P1;SDS_P2;PMS_P1;PMS_P2;Temp;Humidity;BMP_temperature;BMP_pressure;BME280_temperature;BME280_humidity;BME280_pressure;Samples;Min_cycle;Max_cycle;Signal;HPM_P1;HPM_P2
2022/08/09 00:01:47;;;;;;;6.75;4.65;;;14.60;99.90;;;;;;5011900;28;20450;-79
2022/08/09 00:04:22;;;;;;;7.95;6.03;;;14.60;99.90;;;;;;5011312;28;20515;-79
2022/08/09 00:06:48;;;;;;;7.97;6.55;;;14.60;99.90;;;;;;5002405;28;20054;-79
2022/08/09 00:09:15;;;;;;;7.82;6.13;;;14.60;99.90;;;;;;4980990;28;20083;-76
2022/08/09 00:11:41;;;;;;;10.05;9.15;;;14.60;99.90;;;;;;5009508;28;20492;-76
2022/08/09 00:14:07;;;;;;;11.85;10.63;;;14.60;99.90;;;;;;5011660;28;20041;-79
2022/08/09 00:16:33;;;;;;;11.70;10.00;;;14.60;99.90;;;;;;5012119;28;20049;-79
2022/08/09 00:18:59;;;;;;;14.40;11.13;;;14.60;99.90;;;;;;5002520;28;20090;-79
2022/08/09 00:21:25;;;;;;;11.40;9.75;;;14.60;99.90;;;;;;5026859;28;20077;-79
2022/08/09 00:23:52;;;;;;;14.60;10.52;;;14.60;99.90;;;;;;5013992;28;20045;-79
2022/08/09 00:26:21;;;;;;;11.30;10.20;;;14.60;99.90;;;;;;4979654;28;20136;-79
2022/08/09 00:28:47;;;;;;;13.40;11.45;;;14.60;99.90;;;;;;5017790;28;20064;-79
2022/08/09 00:31:12;;;;;;;15.98;13.85;;;14.60;99.90;;;;;;4986826;28;20587;-79
2022/08/09 00:33:40;;;;;;;15.52;13.73;;;14.60;99.90;;;;;;5007673;28;20049;-79
2022/08/09 00:36:06;;;;;;;12.85;11.57;;;14.60;99.90;;;;;;5013408;28;20539;-79
2022/08/09 00:38:32;;;;;;;13.77;12.38;;;14.60;99.90;;;;;;5006631;28;20117;-79
2022/08/09 00:40:57;;;;;;;14.60;12.02;;;14.60;99.90;;;;;;5000581;28;20037;-79
2022/08/09 00:43:23;;;;;;;13.13;11.82;;;14.60;99.90;;;;;;5011249;28;20235;-79
2022/08/09 00:45:49;;;;;;;16.73;14.65;;;14.60;99.90;;;;;;5016524;28;20392;-79
2022/08/09 00:48:15;;;;;;;15.68;13.70;;;14.60;99.90;;;;;;4994116;28;20048;-79
2022/08/09 00:50:42;;;;;;;15.35;13.85;;;14.60;99.90;;;;;;4988219;28;20789;-79
2022/08/09 00:53:09;;;;;;;14.00;12.50;;;14.60;99.90;;;;;;5007923;28;20735;-79
2022/08/09 00:55:35;;;;;;;13.15;11.85;;;14.50;99.90;;;;;;5000265;28;20523;-79
2022/08/09 00:58:01;;;;;;;11.80;9.32;;;14.50;99.90;;;;;;4977070;28;20136;-80
2022/08/09 01:00:27;;;;;;;11.10;10.13;;;14.40;99.90;;;;;;5000422;28;20084;-80
2022/08/09 01:03:24;;;;;;;10.80;9.07;;;14.30;99.90;;;;;;5006093;28;20392;-79
2022/08/09 01:06:19;;;;;;;10.07;7.93;;;14.30;99.90;;;;;;5004206;28;20060;-79
2022/08/09 01:09:26;;;;;;;10.18;9.18;;;14.20;99.90;;;;;;5015307;28;20045;-79
2022/08/09 01:12:35;;;;;;;9.93;8.70;;;14.20;99.90;;;;;;5017313;28;20749;-79
2022/08/09 01:15:10;;;;;;;10.67;8.87;;;14.10;99.90;;;;;;4986697;28;20053;-79
2022/08/09 01:17:44;;;;;;;9.35;8.45;;;14.10;99.90;;;;;;4988405;28;20277;-79
2022/08/09 01:20:31;;;;;;;8.85;7.95;;;14.10;99.90;;;;;;4988620;28;20512;-79
2022/08/09 01:23:21;;;;;;;15.68;11.25;;;14.10;99.90;;;;;;5007163;28;20053;-78
2022/08/09 01:26:24;;;;;;;9.65;8.55;;;14.00;99.90;;;;;;5015217;28;20053;-79
2022/08/09 01:28:55;;;;;;;9.65;7.93;;;13.90;99.90;;;;;;5028670;28;20046;-79
2022/08/09 01:31:25;;;;;;;10.30;9.02;;;13.80;99.90;;;;;;4992487;28;20095;-79
2022/08/09 01:33:52;;;;;;;7.25;5.57;;;13.70;99.90;;;;;;5006964;28;20453;-79
2022/08/09 01:36:21;;;;;;;6.35;5.75;;;13.60;99.90;;;;;;4999152;28;20263;-79
2022/08/09 01:38:49;;;;;;;9.20;8.30;;;13.60;99.90;;;;;;5018388;28;20386;-79
2022/08/09 01:41:24;;;;;;;10.15;9.25;;;13.60;99.90;;;;;;5011153;28;20531;-79
2022/08/09 01:43:55;;;;;;;8.43;7.63;;;13.50;99.90;;;;;;5010507;28;20061;-80
2022/08/09 01:46:26;;;;;;;8.70;7.90;;;13.50;99.90;;;;;;4999348;28;20268;-79
2022/08/09 01:49:04;;;;;;;8.73;7.82;;;13.50;99.90;;;;;;5006044;28;20052;-80
2022/08/09 01:51:30;;;;;;;12.25;11.15;;;13.40;99.90;;;;;;5004997;28;20041;-77
2022/08/09 01:53:59;;;;;;;11.70;10.50;;;13.40;99.90;;;;;;5008866;28;20408;-79
2022/08/09 01:56:27;;;;;;;10.70;9.70;;;13.30;99.90;;;;;;4997644;28;20179;-80
2022/08/09 01:58:56;;;;;;;10.77;9.48;;;13.30;99.90;;;;;;5007393;28;20092;-80
2022/08/09 02:01:25;;;;;;;10.30;9.30;;;13.20;99.90;;;;;;4990471;28;20132;-80
2022/08/09 02:03:56;;;;;;;12.45;11.10;;;13.20;99.90;;;;;;5015450;28;20505;-80
2022/08/09 02:09:13;;;;;;;11.68;10.48;;;13.30;99.90;;;;;;5004826;28;20057;-79
2022/08/09 02:11:39;;;;;;;10.50;9.40;;;13.30;99.90;;;;;;4994601;28;21910;-80
2022/08/09 02:14:07;;;;;;;10.45;9.48;;;13.30;99.90;;;;;;5015800;28;20579;-80
2022/08/09 02:16:35;;;;;;;10.05;9.15;;;13.30;99.90;;;;;;5003300;28;20124;-80
2022/08/09 02:19:03;;;;;;;9.93;9.02;;;13.20;99.90;;;;;;4998274;28;20057;-80
2022/08/09 02:21:34;;;;;;;10.93;9.05;;;13.30;99.90;;;;;;5001205;28;20523;-80
2022/08/09 02:24:04;;;;;;;10.27;8.60;;;13.30;99.90;;;;;;5016551;28;21116;-80
2022/08/09 02:26:33;;;;;;;12.23;10.93;;;13.30;99.90;;;;;;4989421;28;20424;-80
2022/08/09 02:29:04;;;;;;;11.98;10.77;;;13.30;99.90;;;;;;5010171;28;20049;-80
2022/08/09 02:31:32;;;;;;;13.18;11.77;;;13.30;99.90;;;;;;4990304;28;20516;-80
2022/08/09 02:34:04;;;;;;;11.48;10.27;;;13.20;99.90;;;;;;5016194;28;20041;-79
2022/08/09 02:36:52;;;;;;;12.48;10.68;;;13.30;99.90;;;;;;5017439;28;20053;-79
2022/08/09 02:39:23;;;;;;;10.98;9.77;;;13.30;99.90;;;;;;4997358;28;20722;-80
2022/08/09 02:42:15;;;;;;;10.77;9.68;;;13.30;99.90;;;;;;5017687;28;20046;-80
2022/08/09 02:44:49;;;;;;;13.73;10.52;;;13.30;99.90;;;;;;5009801;28;20429;-80
2022/08/09 02:47:17;;;;;;;10.77;9.70;;;13.30;99.90;;;;;;5016195;28;20073;-80
2022/08/09 02:50:17;;;;;;;13.70;11.02;;;13.30;99.90;;;;;;5017482;28;20295;-80
2022/08/09 02:52:47;;;;;;;13.85;11.77;;;13.40;99.90;;;;;;5016539;28;20413;-80
2022/08/09 02:55:15;;;;;;;16.73;13.00;;;13.40;99.90;;;;;;5008184;28;20528;-80
2022/08/09 02:57:44;;;;;;;12.05;10.70;;;13.40;99.90;;;;;;4985725;28;20033;-80
2022/08/09 03:00:11;;;;;;;12.68;10.02;;;13.40;99.90;;;;;;5016456;28;20570;-80
2022/08/09 03:02:42;;;;;;;9.77;8.60;;;13.30;99.90;;;;;;5032505;28;20558;-80
2022/08/09 03:05:11;;;;;;;11.45;10.15;;;13.30;99.90;;;;;;5036140;28;20060;-80
2022/08/09 03:07:38;;;;;;;11.80;9.93;;;13.30;99.90;;;;;;5004761;28;20049;-80
2022/08/09 03:10:05;;;;;;;13.85;11.00;;;13.30;99.90;;;;;;5001357;28;20042;-80
2022/08/09 03:12:36;;;;;;;12.50;10.90;;;13.20;99.90;;;;;;5032448;28;20057;-80
2022/08/09 03:15:03;;;;;;;12.68;10.98;;;13.30;99.90;;;;;;5016914;28;20412;-80
2022/08/09 03:17:33;;;;;;;10.88;9.52;;;13.30;99.90;;;;;;4987456;28;20139;-80
2022/08/09 03:20:00;;;;;;;9.88;8.88;;;13.30;99.90;;;;;;5015433;28;20049;-80
2022/08/09 03:22:31;;;;;;;12.80;11.48;;;13.30;99.90;;;;;;4992726;28;20041;-80
2022/08/09 03:24:58;;;;;;;13.73;12.32;;;13.30;99.90;;;;;;5008002;28;20566;-80
2022/08/09 03:27:25;;;;;;;15.93;13.30;;;13.30;99.90;;;;;;5002229;28;20476;-80
2022/08/09 03:29:53;;;;;;;19.05;14.85;;;13.40;99.90;;;;;;5020525;28;20611;-80
2022/08/09 03:32:19;;;;;;;17.27;14.02;;;13.40;99.90;;;;;;4991084;28;20524;-80
2022/08/09 03:34:45;;;;;;;22.25;14.45;;;13.50;99.90;;;;;;5006860;28;20080;-80
2022/08/09 03:37:13;;;;;;;25.92;13.20;;;13.40;99.90;;;;;;5035924;28;20045;-80
2022/08/09 03:39:38;;;;;;;48.42;13.63;;;13.50;99.90;;;;;;5001686;28;20052;-81
2022/08/09 03:42:04;;;;;;;33.70;11.52;;;13.40;99.90;;;;;;5001792;28;20049;-81
2022/08/09 03:44:30;;;;;;;26.08;11.60;;;13.40;99.90;;;;;;5018263;28;20041;-81
2022/08/09 03:46:56;;;;;;;23.92;11.85;;;13.30;99.90;;;;;;5007819;28;20687;-81
2022/08/09 03:49:26;;;;;;;23.35;12.90;;;13.30;99.90;;;;;;5019838;28;20044;-80
2022/08/09 03:51:56;;;;;;;;;;;13.20;99.90;;;;;;5002879;28;20404;-81
2022/08/09 03:54:25;;;;;;;18.40;13.00;;;13.20;99.90;;;;;;4990974;28;20580;-80
2022/08/09 03:56:55;;;;;;;88.63;14.90;;;13.20;99.90;;;;;;5017848;28;20764;-81
2022/08/09 03:59:21;;;;;;;80.50;14.80;;;13.20;99.90;;;;;;5034384;28;20063;-80
2022/08/09 04:01:49;;;;;;;27.58;12.05;;;13.20;99.90;;;;;;5016366;28;20486;-81
2022/08/09 04:04:15;;;;;;;21.25;13.18;;;13.20;99.90;;;;;;5006976;28;20083;-80
2022/08/09 04:06:41;;;;;;;44.17;13.13;;;13.20;99.90;;;;;;5013623;28;20072;-81
2022/08/09 04:09:08;;;;;;;28.20;12.43;;;13.20;99.90;;;;;;5006987;28;20088;-81
2022/08/09 04:12:03;;;;;;;59.60;12.85;;;13.10;99.90;;;;;;5005001;28;20061;-80
2022/08/09 04:14:30;;;;;;;40.55;15.02;;;13.10;99.90;;;;;;5005425;28;20053;-81
2022/08/09 04:16:56;;;;;;;22.63;11.98;;;13.10;99.90;;;;;;5020225;28;20631;-81
2022/08/09 04:19:22;;;;;;;41.88;13.25;;;13.00;99.90;;;;;;5000365;28;20077;-81
2022/08/09 04:21:48;;;;;;;23.88;11.52;;;13.00;99.90;;;;;;4988969;28;20046;-81
2022/08/09 04:24:14;;;;;;;25.25;11.50;;;13.00;99.90;;;;;;4982884;28;20056;-80
2022/08/09 04:26:40;;;;;;;17.90;11.95;;;13.10;99.90;;;;;;5007947;28;20053;-81
2022/08/09 04:29:06;;;;;;;25.13;11.35;;;13.10;99.90;;;;;;4999334;28;20297;-81
2022/08/09 04:31:32;;;;;;;27.35;10.75;;;13.10;99.90;;;;;;5002050;28;20120;-80
2022/08/09 04:34:00;;;;;;;20.75;10.57;;;13.10;99.90;;;;;;4985846;28;20128;-81
2022/08/09 04:36:29;;;;;;;14.85;11.05;;;13.10;99.90;;;;;;4989534;28;20512;-80
2022/08/09 04:38:57;;;;;;;15.63;10.05;;;13.10;99.90;;;;;;5019850;28;20460;-81
2022/08/09 04:41:23;;;;;;;19.30;10.90;;;13.10;99.90;;;;;;5002553;28;20045;-80
2022/08/09 04:43:55;;;;;;;16.73;9.05;;;13.10;99.90;;;;;;5020429;28;20500;-80
2022/08/09 04:46:22;;;;;;;13.50;9.77;;;13.10;99.90;;;;;;5016872;28;20049;-81
2022/08/09 04:48:51;;;;;;;20.63;10.07;;;13.10;99.90;;;;;;4988932;28;20037;-80
2022/08/09 04:51:16;;;;;;;10.48;9.30;;;13.10;99.90;;;;;;4985171;28;20315;-81
2022/08/09 04:53:44;;;;;;;13.82;8.80;;;13.20;99.90;;;;;;4986693;28;20239;-81
2022/08/09 04:56:14;;;;;;;13.68;9.30;;;13.20;99.90;;;;;;5017356;28;20107;-81
2022/08/09 04:58:39;;;;;;;14.75;8.63;;;13.20;99.90;;;;;;5002184;28;20140;-81
2022/08/09 05:01:08;;;;;;;11.85;8.60;;;13.20;99.90;;;;;;5000276;28;20479;-80
2022/08/09 05:03:34;;;;;;;11.50;8.77;;;13.20;99.90;;;;;;4986824;28;20140;-81
2022/08/09 05:06:00;;;;;;;10.68;8.50;;;13.20;99.90;;;;;;5009119;28;20390;-80
2022/08/09 05:08:26;;;;;;;10.40;9.15;;;13.30;99.90;;;;;;5000653;28;20172;-80
2022/08/09 05:10:51;;;;;;;9.57;8.05;;;13.30;99.90;;;;;;5004020;28;20053;-80
2022/08/09 05:13:17;;;;;;;9.68;8.30;;;13.30;99.90;;;;;;4996981;28;20131;-80
2022/08/09 05:15:43;;;;;;;9.00;7.80;;;13.40;99.90;;;;;;5012386;28;20100;-80
2022/08/09 05:18:12;;;;;;;11.43;9.90;;;13.40;99.90;;;;;;4999429;28;20085;-81
2022/08/09 05:20:37;;;;;;;12.20;9.70;;;13.60;99.90;;;;;;4990787;28;20539;-81
2022/08/09 05:23:03;;;;;;;11.48;9.35;;;13.50;99.90;;;;;;4968326;28;20080;-81
2022/08/09 05:25:29;;;;;;;10.55;9.45;;;13.60;99.90;;;;;;4997017;28;20057;-80
2022/08/09 05:27:58;;;;;;;11.60;10.40;;;13.70;99.90;;;;;;5006859;28;20100;-81
2022/08/09 05:30:24;;;;;;;13.20;10.30;;;13.70;99.90;;;;;;5013557;28;20041;-81
2022/08/09 05:32:50;;;;;;;12.98;11.20;;;13.80;99.90;;;;;;4979644;28;20080;-81
2022/08/09 05:35:16;;;;;;;11.82;9.65;;;13.80;99.90;;;;;;4965887;28;20053;-81
2022/08/09 05:37:41;;;;;;;11.80;9.52;;;13.90;99.90;;;;;;4983922;28;20060;-81
2022/08/09 05:40:08;;;;;;;10.68;9.55;;;13.90;99.90;;;;;;5017263;28;20503;-81
2022/08/09 05:42:33;;;;;;;11.15;9.95;;;14.00;99.90;;;;;;4985841;28;20049;-81
2022/08/09 05:44:59;;;;;;;11.43;9.73;;;14.00;99.90;;;;;;5012465;28;20132;-81
2022/08/09 05:47:26;;;;;;;11.80;9.88;;;14.10;99.90;;;;;;5014577;28;20064;-81
2022/08/09 05:49:56;;;;;;;15.35;10.52;;;14.10;99.90;;;;;;5016876;28;20661;-81
2022/08/09 05:52:25;;;;;;;11.32;10.13;;;14.20;99.90;;;;;;5014093;28;20526;-81
2022/08/09 05:54:51;;;;;;;13.13;11.30;;;14.30;99.90;;;;;;5008467;28;20728;-81
2022/08/09 05:57:17;;;;;;;14.32;11.05;;;14.30;99.90;;;;;;4992782;28;20057;-81
2022/08/09 05:59:42;;;;;;;16.02;11.05;;;14.30;99.90;;;;;;5004048;28;20462;-81
2022/08/09 06:02:08;;;;;;;13.82;11.13;;;14.40;99.90;;;;;;5007774;28;20337;-81
2022/08/09 06:04:35;;;;;;;13.57;11.55;;;14.50;99.90;;;;;;4979757;28;20103;-81
2022/08/09 06:07:05;;;;;;;14.98;12.50;;;14.50;99.90;;;;;;5006389;28;20317;-81
2022/08/09 06:09:31;;;;;;;17.10;11.93;;;14.60;99.90;;;;;;4990200;28;20057;-81
2022/08/09 06:11:57;;;;;;;13.70;11.30;;;14.70;99.90;;;;;;5012340;28;20041;-81
2022/08/09 06:14:25;;;;;;;19.35;12.20;;;14.80;99.90;;;;;;4996342;28;20041;-81
2022/08/09 06:17:01;;;;;;;16.08;12.07;;;14.90;99.90;;;;;;5011685;28;20041;-81
2022/08/09 06:19:27;;;;;;;16.70;12.88;;;15.00;99.90;;;;;;5001041;28;20571;-81
2022/08/09 06:21:55;;;;;;;16.67;13.55;;;15.00;99.90;;;;;;4966072;28;20136;-84
2022/08/09 06:24:21;;;;;;;19.65;14.88;;;15.10;99.90;;;;;;4982002;28;20037;-80
2022/08/09 06:26:47;;;;;;;18.02;13.63;;;15.20;99.90;;;;;;4996888;28;20060;-81
2022/08/09 06:29:13;;;;;;;15.70;12.13;;;15.30;99.90;;;;;;5015875;28;20060;-81
2022/08/09 06:31:40;;;;;;;16.80;12.68;;;15.30;99.90;;;;;;5014454;28;20200;-80
2022/08/09 06:34:06;;;;;;;15.75;11.30;;;15.40;99.90;;;;;;4995866;28;20403;-80
2022/08/09 06:36:32;;;;;;;13.50;11.20;;;15.50;99.90;;;;;;5013214;28;20500;-80
2022/08/09 06:38:58;;;;;;;15.98;12.68;;;15.50;99.90;;;;;;5017934;28;20080;-80
2022/08/09 06:41:24;;;;;;;12.82;10.48;;;15.60;99.90;;;;;;5009998;28;20413;-80
2022/08/09 06:43:50;;;;;;;12.52;9.80;;;15.70;99.90;;;;;;5004357;28;20049;-80
2022/08/09 06:46:16;;;;;;;12.25;9.57;;;15.80;99.90;;;;;;4983470;28;20060;-80
2022/08/09 06:48:42;;;;;;;12.30;8.30;;;15.90;99.90;;;;;;4984389;28;20102;-80
2022/08/09 06:51:14;;;;;;;15.95;10.10;;;16.00;99.90;;;;;;5013285;28;20117;-79
2022/08/09 06:53:40;;;;;;;11.00;8.00;;;16.10;99.90;;;;;;5024267;28;20504;-79
2022/08/09 06:56:07;;;;;;;13.35;9.02;;;16.20;99.90;;;;;;5017221;28;20044;-79
2022/08/09 06:58:33;;;;;;;10.98;7.75;;;16.30;99.90;;;;;;4994238;28;20701;-80
2022/08/09 07:00:59;;;;;;;10.13;8.10;;;16.50;99.90;;;;;;5014015;28;20056;-79
2022/08/09 07:03:25;;;;;;;10.85;7.93;;;16.60;99.90;;;;;;5011369;28;20050;-80
2022/08/09 07:05:51;;;;;;;12.40;8.02;;;16.70;99.90;;;;;;5011701;28;20049;-80
2022/08/09 07:08:17;;;;;;;12.40;8.07;;;16.80;99.90;;;;;;5016400;28;20041;-79
2022/08/09 07:10:43;;;;;;;9.70;7.75;;;16.90;99.90;;;;;;5013135;28;20451;-80
2022/08/09 07:13:09;;;;;;;10.13;6.80;;;17.00;99.90;;;;;;5012375;28;20100;-79
2022/08/09 07:15:35;;;;;;;9.10;6.95;;;17.10;99.90;;;;;;5000940;28;20068;-80
2022/08/09 07:18:00;;;;;;;9.15;5.85;;;17.30;99.90;;;;;;5012849;28;20057;-79
2022/08/09 07:20:26;;;;;;;8.75;5.30;;;17.40;99.90;;;;;;5018832;28;20591;-79
2022/08/09 07:22:55;;;;;;;7.65;4.30;;;17.60;99.90;;;;;;5020822;28;20396;-80
2022/08/09 07:25:21;;;;;;;7.20;3.88;;;17.70;99.90;;;;;;4997415;28;20512;-80
2022/08/09 07:27:47;;;;;;;4.88;3.05;;;17.80;99.90;;;;;;5018779;28;20054;-79
2022/08/09 07:30:16;;;;;;;5.97;3.85;;;17.90;99.90;;;;;;5008982;28;20057;-79
2022/08/09 07:32:45;;;;;;;5.45;3.33;;;18.00;99.90;;;;;;5015817;28;20896;-79
2022/08/09 07:35:12;;;;;;;5.38;3.00;;;18.10;99.90;;;;;;5008429;28;20049;-80
2022/08/09 07:37:45;;;;;;;4.80;3.17;;;18.20;99.90;;;;;;5006858;28;20522;-80
2022/08/09 07:40:17;;;;;;;4.65;2.63;;;18.30;99.90;;;;;;4998437;28;20041;-79
2022/08/09 07:43:01;;;;;;;4.38;2.45;;;18.40;99.90;;;;;;5007243;28;20060;-80
2022/08/09 07:45:29;;;;;;;5.93;2.25;;;18.50;99.90;;;;;;4981768;28;20459;-80
2022/08/09 07:47:57;;;;;;;4.82;1.95;;;18.60;99.90;;;;;;4982182;28;20053;-79
2022/08/09 07:50:26;;;;;;;5.32;1.80;;;18.80;99.90;;;;;;4976874;28;20091;-79
2022/08/09 07:52:54;;;;;;;3.50;1.70;;;18.90;99.90;;;;;;4993046;28;20060;-79
2022/08/09 07:55:26;;;;;;;3.83;1.80;;;19.10;99.90;;;;;;5008239;28;20115;-79
2022/08/09 07:57:52;;;;;;;3.90;1.58;;;19.10;99.90;;;;;;5004930;28;20375;-79
2022/08/09 08:00:21;;;;;;;3.30;1.58;;;19.30;99.90;;;;;;5006500;28;20057;-80
2022/08/09 08:02:47;;;;;;;3.40;1.70;;;19.40;99.90;;;;;;4999491;28;20479;-79
2022/08/09 08:05:12;;;;;;;3.88;1.70;;;19.50;99.90;;;;;;5014960;28;20057;-79
2022/08/09 08:07:38;;;;;;;4.35;1.70;;;19.60;99.90;;;;;;5017326;28;20052;-79
2022/08/09 08:10:05;;;;;;;3.80;1.65;;;19.70;99.90;;;;;;4992048;28;20545;-80
2022/08/09 08:12:31;;;;;;;5.88;2.20;;;19.70;99.90;;;;;;4985358;28;20045;-81
2022/08/09 08:14:56;;;;;;;5.32;1.80;;;19.70;99.90;;;;;;5004534;28;20095;-80
2022/08/09 08:17:25;;;;;;;3.78;2.10;;;19.70;99.90;;;;;;5006348;28;20045;-79
2022/08/09 08:19:51;;;;;;;3.00;1.55;;;19.90;99.90;;;;;;5007971;28;20531;-78
2022/08/09 08:22:17;;;;;;;4.85;2.15;;;20.00;99.90;;;;;;5004774;28;20324;-80
2022/08/09 08:24:43;;;;;;;2.85;1.70;;;20.10;99.90;;;;;;5000081;28;20085;-80
2022/08/09 08:27:09;;;;;;;2.85;1.23;;;20.10;99.90;;;;;;5005585;28;20110;-81
2022/08/09 08:29:35;;;;;;;3.40;1.63;;;20.30;99.90;;;;;;5026789;28;20132;-79
2022/08/09 08:32:00;;;;;;;2.80;1.23;;;20.40;99.90;;;;;;5019139;28;20050;-80
2022/08/09 08:34:26;;;;;;;4.63;1.90;;;20.60;99.90;;;;;;4995977;28;20065;-80
2022/08/09 08:36:55;;;;;;;2.78;1.20;;;20.80;99.90;;;;;;5014396;28;20045;-79
2022/08/09 08:39:20;;;;;;;2.78;1.70;;;21.00;99.90;;;;;;5011478;28;20556;-77
2022/08/09 08:41:46;;;;;;;4.00;1.90;;;21.20;99.90;;;;;;5015908;28;20088;-76
2022/08/09 08:44:13;;;;;;;4.28;1.63;;;21.30;99.90;;;;;;5016515;28;20436;-79
2022/08/09 08:46:39;;;;;;;3.08;1.55;;;21.30;99.90;;;;;;5009117;28;20120;-79
2022/08/09 08:49:10;;;;;;;2.92;1.30;;;21.30;99.90;;;;;;5015727;28;20045;-79
2022/08/09 08:51:38;;;;;;;2.65;1.40;;;21.30;99.90;;;;;;5001619;28;20433;-80
2022/08/09 08:54:07;;;;;;;2.60;1.35;;;21.30;99.90;;;;;;5011963;28;20034;-79
2022/08/09 08:56:38;;;;;;;2.50;1.00;;;21.10;99.90;;;;;;5013131;28;20049;-81
2022/08/09 08:59:06;;;;;;;1.83;1.00;;;21.00;99.90;;;;;;5017877;28;20053;-81
2022/08/09 09:01:41;;;;;;;2.00;0.95;;;20.90;99.90;;;;;;5016686;28;20061;-80
2022/08/09 09:04:10;;;;;;;2.67;1.00;;;20.80;99.90;;;;;;5015484;28;20471;-78
2022/08/09 09:06:37;;;;;;;1.90;0.90;;;20.90;99.90;;;;;;5010819;28;20064;-82
2022/08/09 09:09:05;;;;;;;2.20;0.80;;;21.00;99.90;;;;;;5015800;28;20057;-80
2022/08/09 09:11:31;;;;;;;1.73;0.90;;;20.90;99.90;;;;;;5000281;28;20057;-80
2022/08/09 09:14:00;;;;;;;1.95;1.10;;;20.90;99.90;;;;;;4996332;28;20049;-79
2022/08/09 09:16:31;;;;;;;2.33;1.10;;;21.00;99.90;;;;;;5014028;28;20532;-79
2022/08/09 09:18:56;;;;;;;2.63;1.00;;;21.10;99.90;;;;;;4995180;28;20053;-79
2022/08/09 09:21:22;;;;;;;1.92;1.10;;;21.10;99.90;;;;;;5005335;28;20080;-79
2022/08/09 09:23:48;;;;;;;4.10;1.50;;;21.30;99.90;;;;;;4981217;28;20345;-79
2022/08/09 09:26:15;;;;;;;2.17;1.05;;;21.50;99.90;;;;;;4997456;28;20437;-80
2022/08/09 09:28:45;;;;;;;4.60;1.40;;;21.70;99.90;;;;;;4974312;28;20096;-79
2022/08/09 09:31:13;;;;;;;1.48;0.90;;;21.90;99.90;;;;;;5005923;28;20105;-77
2022/08/09 09:33:39;;;;;;;2.42;1.00;;;21.90;99.90;;;;;;4975000;28;20049;-76
2022/08/09 09:36:08;;;;;;;2.15;1.08;;;21.80;99.90;;;;;;5004612;28;20096;-78
2022/08/09 09:38:49;;;;;;;2.75;0.93;;;21.70;99.90;;;;;;4977726;28;20057;-80
2022/08/09 09:41:30;;;;;;;2.83;1.17;;;21.80;99.90;;;;;;5008198;28;20061;-78
2022/08/09 09:44:02;;;;;;;2.85;1.35;;;21.90;99.90;;;;;;5011806;28;20050;-81
2022/08/09 09:46:36;;;;;;;2.83;1.30;;;22.00;99.90;;;;;;5007213;28;20386;-77
2022/08/09 09:49:06;;;;;;;2.60;1.15;;;22.20;99.90;;;;;;5014968;28;20540;-77
2022/08/09 09:51:33;;;;;;;1.70;1.00;;;22.30;99.90;;;;;;5020268;28;20053;-79
2022/08/09 09:54:18;;;;;;;2.78;0.88;;;22.40;99.90;;;;;;5010365;28;20045;-79
2022/08/09 09:56:49;;;;;;;1.35;0.68;;;22.60;99.90;;;;;;5014448;28;20192;-78
2022/08/09 09:59:33;;;;;;;1.65;1.00;;;22.80;99.90;;;;;;4985238;28;20072;-77
2022/08/09 10:02:00;;;;;;;2.08;0.80;;;23.00;99.90;;;;;;5003904;28;20080;-77
2022/08/09 10:04:26;;;;;;;1.65;0.80;;;23.00;99.90;;;;;;5005583;28;20053;-79
2022/08/09 10:06:51;;;;;;;1.73;0.80;;;23.00;99.90;;;;;;5011764;28;20049;-78
2022/08/09 10:09:17;;;;;;;2.85;0.95;;;23.10;99.90;;;;;;5015323;28;20104;-79
2022/08/09 10:11:43;;;;;;;1.70;0.82;;;23.10;98.50;;;;;;5001285;28;20075;-79
2022/08/09 10:14:27;;;;;;;2.55;1.00;;;23.00;99.10;;;;;;5006559;28;20052;-76
2022/08/09 10:16:56;;;;;;;1.90;0.80;;;23.10;99.60;;;;;;5009492;28;20450;-77
2022/08/09 10:19:34;;;;;;;2.78;0.65;;;23.10;99.90;;;;;;5009527;28;20112;-77
2022/08/09 10:22:01;;;;;;;1.30;0.60;;;23.20;97.70;;;;;;4987632;28;20046;-76
2022/08/09 10:24:27;;;;;;;1.10;0.70;;;23.20;98.50;;;;;;5010490;28;20489;-76
2022/08/09 10:26:56;;;;;;;2.00;0.75;;;23.30;99.30;;;;;;5021178;28;20065;-76
2022/08/09 10:29:28;;;;;;;1.53;0.53;;;23.40;98.80;;;;;;5011242;28;20066;-77
2022/08/09 10:31:57;;;;;;;2.50;0.80;;;23.50;97.90;;;;;;4987561;28;20061;-79
2022/08/09 10:34:26;;;;;;;1.00;0.80;;;23.60;97.70;;;;;;4977462;28;20045;-78
2022/08/09 10:36:55;;;;;;;2.47;0.75;;;23.60;97.10;;;;;;5020921;28;20530;-77
2022/08/09 10:39:25;;;;;;;3.42;0.90;;;23.60;97.00;;;;;;5003845;28;20041;-75
2022/08/09 10:41:51;;;;;;;1.85;0.80;;;23.50;96.30;;;;;;4994621;28;20759;-75
2022/08/09 10:44:26;;;;;;;2.55;0.80;;;23.40;97.40;;;;;;4986644;28;20366;-76
2022/08/09 10:47:25;;;;;;;2.28;0.80;;;23.40;98.00;;;;;;5002333;28;20049;-76
2022/08/09 10:50:25;;;;;;;1.45;0.60;;;23.50;98.00;;;;;;4976206;28;20057;-75
2022/08/09 10:53:10;;;;;;;0.82;0.70;;;23.60;97.10;;;;;;4998609;28;20064;-76
2022/08/09 10:55:36;;;;;;;1.10;0.70;;;23.60;98.30;;;;;;5012776;28;20088;-74
2022/08/09 10:58:02;;;;;;;1.58;0.60;;;23.80;97.00;;;;;;5012127;28;20049;-76
2022/08/09 11:00:28;;;;;;;1.30;0.80;;;23.80;96.60;;;;;;4998106;28;20041;-77
2022/08/09 11:02:58;;;;;;;1.00;0.90;;;23.90;96.30;;;;;;4986018;28;20053;-76
2022/08/09 11:05:26;;;;;;;1.40;0.70;;;24.00;96.20;;;;;;5008828;28;20047;-75
2022/08/09 11:07:55;;;;;;;1.90;0.60;;;24.00;94.90;;;;;;4990190;28;20057;-76
2022/08/09 11:10:40;;;;;;;1.80;0.75;;;24.00;95.70;;;;;;5011930;28;20088;-75
2022/08/09 11:13:12;;;;;;;1.33;0.70;;;24.10;96.40;;;;;;4998257;28;20616;-79
2022/08/09 11:15:38;;;;;;;1.33;0.85;;;24.30;94.90;;;;;;5006336;28;20072;-75
2022/08/09 11:18:04;;;;;;;1.33;0.90;;;24.30;94.20;;;;;;4987198;28;20327;-74
2022/08/09 11:20:46;;;;;;;2.20;0.70;;;24.20;93.60;;;;;;4972416;28;20045;-75
2022/08/09 11:23:13;;;;;;;2.47;0.70;;;24.20;95.80;;;;;;4998038;28;20087;-75
2022/08/09 11:25:44;;;;;;;1.00;0.50;;;24.30;95.30;;;;;;4981110;28;20103;-75
2022/08/09 11:28:36;;;;;;;2.50;0.82;;;24.40;95.70;;;;;;4992869;28;20245;-73
2022/08/09 11:31:58;;;;;;;0.90;0.60;;;24.60;93.30;;;;;;5007390;28;20101;-75
2022/08/09 11:34:44;;;;;;;1.15;0.60;;;24.60;93.70;;;;;;4974275;28;20050;-75
2022/08/09 11:37:26;;;;;;;1.27;0.70;;;24.50;93.90;;;;;;5011725;28;20531;-76
2022/08/09 11:40:09;;;;;;;3.15;0.80;;;24.60;94.30;;;;;;4999306;28;20096;-75
2022/08/09 11:42:47;;;;;;;1.73;0.80;;;24.60;93.00;;;;;;5016088;28;20497;-75
2022/08/09 11:45:29;;;;;;;2.78;1.00;;;24.70;92.10;;;;;;5009812;28;20105;-75
2022/08/09 11:48:28;;;;;;;1.88;0.70;;;24.70;92.30;;;;;;5027385;28;20052;-75
2022/08/09 11:51:00;;;;;;;1.42;0.68;;;24.70;93.40;;;;;;5010710;28;20539;-75
2022/08/09 11:53:28;;;;;;;2.78;1.20;;;24.90;93.50;;;;;;5012798;28;20064;-74
2022/08/09 11:56:19;;;;;;;2.15;0.88;;;24.90;90.90;;;;;;5002056;28;20265;-75
2022/08/09 11:58:50;;;;;;;2.83;0.90;;;24.90;91.00;;;;;;4999792;28;20115;-75
2022/08/09 12:01:17;;;;;;;1.75;0.90;;;24.90;91.50;;;;;;4993976;28;20050;-76
2022/08/09 12:03:45;;;;;;;1.35;0.90;;;25.00;92.30;;;;;;4994307;28;20077;-75
2022/08/09 12:06:21;;;;;;;2.35;0.70;;;25.00;92.00;;;;;;5003192;28;20069;-78
2022/08/09 12:08:52;;;;;;;1.45;0.80;;;25.10;90.40;;;;;;4978183;28;20057;-72
2022/08/09 12:11:24;;;;;;;0.80;0.60;;;25.10;89.80;;;;;;4997861;28;20516;-75
2022/08/09 12:13:53;;;;;;;1.83;0.70;;;25.10;90.20;;;;;;4999504;28;21327;-75
2022/08/09 12:16:30;;;;;;;2.58;1.00;;;25.00;90.70;;;;;;5007683;28;20412;-77
2022/08/09 12:18:58;;;;;;;1.75;0.68;;;25.10;91.40;;;;;;4977098;28;20060;-76
2022/08/09 12:21:42;;;;;;;2.15;1.15;;;25.20;91.10;;;;;;4981795;28;20967;-73
2022/08/09 12:24:10;;;;;;;3.53;1.35;;;25.10;91.20;;;;;;4999062;28;20061;-75
2022/08/09 12:26:44;;;;;;;1.58;0.80;;;25.10;91.60;;;;;;5016008;28;20127;-75
2022/08/09 12:29:18;;;;;;;1.13;0.77;;;25.20;92.30;;;;;;5008088;28;20990;-78
2022/08/09 12:31:46;;;;;;;2.05;0.80;;;25.40;90.20;;;;;;5013563;28;20085;-75
2022/08/09 12:34:13;;;;;;;2.23;0.80;;;25.40;90.70;;;;;;5015918;28;20058;-75
2022/08/09 12:36:54;;;;;;;2.05;0.68;;;25.50;90.40;;;;;;5013764;28;20431;-75
2022/08/09 12:39:20;;;;;;;2.15;0.95;;;25.50;90.70;;;;;;4997563;28;20100;-74
2022/08/09 12:41:55;;;;;;;1.83;0.90;;;25.40;90.30;;;;;;5010775;28;20081;-75
2022/08/09 12:44:21;;;;;;;2.33;1.10;;;25.20;88.60;;;;;;4979671;28;20685;-75
2022/08/09 12:46:48;;;;;;;1.42;0.98;;;25.20;89.10;;;;;;4980756;28;20060;-78
2022/08/09 12:49:14;;;;;;;2.13;1.13;;;25.10;89.60;;;;;;4986017;28;20087;-73
2022/08/09 12:52:02;;;;;;;1.50;0.90;;;25.10;90.30;;;;;;4991063;28;20359;-74
2022/08/09 12:54:27;;;;;;;1.67;0.98;;;25.00;91.20;;;;;;5009702;28;20034;-74
2022/08/09 12:56:53;;;;;;;1.85;1.10;;;25.00;90.90;;;;;;4977848;28;20499;-74